Latest Observation

42 Stations

15 Minute Data | America/Los_Angeles
as of 9/6/26 1:25 PM PDT
Station Date Time Temp (°F) RH (%) Dew Pt (°F) Wind Spd (mph) Wind Dir (°) Wind Gust (mph) Latest Rain (In) Daily Rain (In) Daily Min Temp (°F) Daily Max Temp (°F) Daily Max Wind (mph)
Elk Mt. Farm 8/13/26 1500 85.6   7.4 - - - - - - - 51.4   1.1 85.6   7.4 -
Upper Lake 9/6/26 1315 75.8   2.0 32   5 44.2   2.1 4.2 W | 277 12.1   2.2 0.00 0.00 39.8   0.9 76.9   2.4 13.4   2.0
Scotts Valley 9/6/26 1315 76.5   1.5 30   5 42.6   2.7 4.8 WSW | 252 12.3   5.3 0.00 0.00 34.9   1.4 77.2   1.2 12.3   4.2
Scotts Valley-South (Bella Vista) 9/6/26 1315 75.4   0.6 28   2 40.1   1.6 4.6 WNW | 283 9.8   3.2 0.00 0.00 39.3   1.9 75.6   0.5 10.8   2.6
Kelseyville 9/6/26 1315 76.4   3.1 36   4 47.7   0.1 4.2 NNW | 337 10.1   0.9 0.00 0.00 40.2   0.5 77.0   2.4 10.1   1.3
Kelseyville Remote 9/6/26 1315 76.8   2.3 29   3 42.5   0.2 - - - 0.00 0.00 40.3   1.8 76.9   2.0 -
Kelseyville (Clark Drive) 9/6/26 1315 77.2   1.3 - - - - - 0.00 0.00 37.8   0.6 77.8   1.1 -
Kelsey Bench (Oaklea) 9/6/26 1315 75.2   1.6 28   5 40.2   2.8 6.6 SSW | 213 11.8   4.4 0.00 0.00 44.2   0.7 75.8   1.4 11.8   0.9
Smith Lane (Kelseyville-South) 9/6/26 1315 79.2   3.1 26   9 41.2   4.9 4.7 WSW | 243 11.0   3.9 0.00 0.00 38.4   0.7 79.3   1.3 11.0   1.7
Bell Hill-West 9/6/26 1315 76.4   1.2 31   11 43.2   7.3 8.2 SW | 229 13.5   5.7 0.00 0.00 41.8   0.1 77.4   1.7 13.5   2.0
High Valley Ridgeline (Brassfield) 9/3/26 1430 64.3   0.5 52   2 46.4   1.6 12.2 WSW | 242 17.9   7.4 0.00 0.01 55.0   3.7 66.3   0.1 20.5   5.3
Wight Way (Adobe Creek) 9/6/26 1300 79.7   2.7 24   3 39.8   4.9 4.4 W | 275 11.5   1.2 0.00 0.00 38.7   0.3 80.8   1.7 14.0   3.0
Ridgeline Top (Brassfield) 9/3/26 1430 66.6   0.4 - - - - - - - 54.8   3.7 69.7   1.1 -
Ridgeline Low (Brassfield) 9/3/26 1430 66.8   0.7 - - - - - - - 56.8   4.6 67.8   0.9 -
Long Valley (Shannon) 6/29/26 1400 84.9   4.6 25   1 44.9   3.2 2.9 ENE | 75 10.2   0.4 0.00 0.00 46.4   0.4 86.9   6.5 13.7   1.8
High Valley Winery 9/3/26 1430 65.6   2.0 49   1 45.9   1.2 9.6 WSW | 238 17.0   7.0 0.00 0.01 57.3   4.2 67.3   2.2 17.0   1.1
Round Mtn Rd. 9/6/26 0645 45.5   0.9 - - - - - - - 44.4   0.2 51.7   2.4 -
Circle O 9/6/26 1315 74.3   1.4 - - - - - - - 42.0   0.6 75.5   1.7 -
Robertsbridge Vineyards 9/6/26 1315 74.8   1.6 30   4 41.6   1.9 - - - - - 38.9   2.4 75.3   0.3 -
Urgency Vineyard 9/6/26 1315 77.2   4.9 25   6 38.4   1.1 3.7 W | 272 9.7   1.0 0.00 0.00 39.9   0.4 77.3   2.5 13.2   2.7
Red Hills (Beckstoffer) 9/6/26 1315 76.7   1.2 24   4 37.6   2.6 - - - 0.00 0.00 36.3   0.7 76.8   0.8 -
Winters (Shannon) 9/6/26 1315 74.1   2.5 24   4 34.7   2.1 6.9 WNW | 294 15.3   9.2 0.00 0.00 33.9   0.7 75.7   0.9 17.5   7.2
Secret Pond (Shannon) 9/6/26 1315 73.9   4.3 25   10 35.7   4.6 6.9 NW | 318 13.6   8.3 0.00 0.00 36.1   3.5 75.2   2.5 13.7   4.2
Rolling Knolls (Shannon) 9/6/26 1315 75.8   0.4 30   0 41.7   0.0 2.2 ENE | 70 6.0   1.4 0.00 0.00 37.5   3.2 76.6   0.7 10.4   1.2
Lower Lake 9/6/26 1315 76.0   1.5 30   1 42.8   0.4 5.2 N | 4 10.7   4.8 0.00 0.00 44.2   1.5 77.1   1.8 14.9   0.6
Adamson Ranch 9/6/26 1315 78.6   2.1 24   3 39.2   1.5 2.1 NNW | 346 8.1   8.3 0.00 0.00 38.8   1.3 78.6   1.3 12.1   4.4
Middletown (Diamond D) 9/6/26 1315 77.7   1.1 37   1 49.7   1.4 5.3 N | 353 12.1   1.0 0.00 0.00 38.9   4.7 79.1   1.8 12.1   1.0
Middletown-West (Domaine Helena) 9/6/26 1315 78.9   2.6 34   6 48.3   1.8 9.4 SSW | 195 14.9   4.7 0.00 0.00 37.0   2.4 79.2   2.0 14.9   2.5
Middletown-South 9/6/26 1315 74.6   1.0 36   4 45.8   3.9 7.6 SW | 228 15.0   5.8 0.00 0.00 42.0   2.6 77.1   0.9 15.0   4.9
Jim Davis (Langtry) 9/6/26 1315 78.5   2.6 29   4 43.4   1.4 5.5 S | 177 10.4   0.7 0.00 0.00 46.2   1.2 78.9   2.8 11.4   0.4
Napa Valley Basin 9/6/26 1315 80.7   1.6 27   2 43.6   0.3 4.8 SW | 219 12.1   0.9 0.00 0.00 37.7   1.1 81.2   1.7 12.1   0.9
Lower Bohn 9/6/26 1315 80.9   4.0 27   3 44.2   0.8 5.6 NW | 305 11.8   2.0 0.00 0.00 36.5   1.6 82.0   4.0 12.6   0.4
Upper Bohn-North 9/6/26 1315 80.2   2.5 22   2 38.0   0.5 3.3 SSE | 161 7.5   3.1 0.00 0.00 43.6   2.7 80.9   2.4 11.5   0.9
Snell Peak Blk#9 9/6/26 1315 77.8   1.9 24   0 38.0   2.0 2.9 ESE | 117 11.6   1.2 0.00 0.00 48.8   2.6 79.4   3.3 11.6   0.7
Coyote Lake West 9/6/26 1315 79.4   2.3 31   0 46.0   2.2 2.9 SE | 136 8.3   3.4 0.00 0.00 43.4   3.4 80.0   2.8 13.2   1.5
Coyote Lake Northeast 9/6/26 1315 80.2   1.7 30   0 46.1   1.5 - - - - - 45.9   1.0 80.3   1.2 -
Coyote Lake East 9/6/26 1315 80.9   2.9 27   1 43.4   1.7 - - - - - 39.0   1.4 81.0   2.9 -
Morgan Valley 9/6/26 1315 74.4   4.0 32   8 42.6   2.1 3.5 S | 169 10.1   4.5 0.00 0.00 52.0   0.0 74.5   4.0 15.0   0.5
Mine Pit North 9/6/26 1315 78.5   4.4 21   10 35.2   6.1 5.5 S | 178 12.3   4.5 - - 51.9   3.6 80.6   4.0 14.9   1.9
Mine Pit South 9/6/26 1315 77.1   2.9 19   9 31.7   7.0 5.7 S | 186 15.6   0.4 0.00 0.00 54.3   3.4 78.7   3.5 15.6   4.1
Cow Mountain 9/6/26 1315 60.6   1.4 - - 13.7 W | 266 23.2   6.8 0.00 0.00 49.8   1.6 61.9   3.8 23.2   6.8
Ukiah-SE (Ruddick) 9/6/26 1315 75.5   2.1 30   1 42.0   0.7 8.0 NNW | 335 12.5   6.2 0.00 0.00 38.4   3.1 76.1   2.3 16.1   7.0
Max     80.9 37 49.7 13.7 - 23.2 0.00 0.00 54.3 82.0 23.2
Avg     76.7 28 41.6 5.4 - 11.9 0.00 - - - -
Min     60.6 19 31.7 2.1 - 6.0 0.00 0.00 33.9 61.9 10.1